Time;durP1;ratioP1;P1;durP2;ratioP2;P2;SDS_P1;SDS_P2;PMS_P1;PMS_P2;Temp;Humidity;BMP_temperature;BMP_pressure;BME280_temperature;BME280_humidity;BME280_pressure;Samples;Min_cycle;Max_cycle;Signal;HPM_P1;HPM_P2
2023/03/27 00:00:55;;;;;;;10.35;5.22;;;;;;;7.33;65.15;93645.94;5057516;28;20208;-76
2023/03/27 00:03:24;;;;;;;14.40;8.18;;;;;;;7.43;64.37;93637.44;5060547;28;20207;-76
2023/03/27 00:06:00;;;;;;;14.60;8.73;;;;;;;7.59;64.01;93626.81;5054042;28;20318;-76
2023/03/27 00:08:27;;;;;;;15.43;7.95;;;;;;;7.38;64.31;93621.50;5052774;28;20692;-76
2023/03/27 00:10:54;;;;;;;14.15;8.52;;;;;;;7.41;64.85;93631.59;5054669;28;20204;-76
2023/03/27 00:13:21;;;;;;;14.35;8.07;;;;;;;7.38;64.55;93632.28;5060157;28;20208;-75
2023/03/27 00:15:49;;;;;;;11.98;7.93;;;;;;;7.45;64.97;93640.59;5060109;28;20218;-75
2023/03/27 00:18:16;;;;;;;14.50;8.80;;;;;;;7.47;64.82;93624.88;5055092;28;20258;-74
2023/03/27 00:20:43;;;;;;;14.40;8.18;;;;;;;7.29;64.60;93615.38;5055264;28;20203;-75
2023/03/27 00:23:12;;;;;;;9.95;5.28;;;;;;;7.29;65.96;93623.47;5066379;28;20289;-75
2023/03/27 00:25:39;;;;;;;10.18;5.10;;;;;;;7.22;64.69;93624.00;5066875;28;20210;-75
2023/03/27 00:28:07;;;;;;;12.90;4.78;;;;;;;7.34;64.27;93610.59;5054061;28;20294;-76
2023/03/27 00:30:35;;;;;;;9.98;4.95;;;;;;;7.33;65.03;93614.41;5063981;28;20262;-76
2023/03/27 00:33:01;;;;;;;10.93;5.32;;;;;;;7.31;65.15;93615.84;5054670;28;20272;-75
2023/03/27 00:35:30;;;;;;;8.55;4.35;;;;;;;7.35;64.85;93611.38;5053882;28;20692;-75
2023/03/27 00:37:57;;;;;;;10.82;4.60;;;;;;;7.21;64.15;93614.34;5059841;28;20214;-75
2023/03/27 00:40:26;;;;;;;11.95;5.05;;;;;;;7.26;65.50;93629.50;5060792;28;20206;-77
2023/03/27 00:42:56;;;;;;;10.45;4.75;;;;;;;7.32;64.64;93602.03;5055467;28;20210;-75
2023/03/27 00:45:27;;;;;;;9.60;4.70;;;;;;;7.14;64.51;93596.03;5053684;28;20285;-75
2023/03/27 00:48:00;;;;;;;10.90;5.13;;;;;;;7.22;65.21;93607.84;5057544;28;20203;-75
2023/03/27 00:50:30;;;;;;;10.25;4.30;;;;;;;7.31;64.48;93588.91;5064264;28;20276;-76
2023/03/27 00:53:00;;;;;;;9.68;4.43;;;;;;;7.31;65.03;93584.31;5056114;28;20250;-75
2023/03/27 00:55:33;;;;;;;13.23;4.88;;;;;;;7.45;65.42;93600.16;5060284;28;20834;-74
2023/03/27 00:58:05;;;;;;;11.95;4.93;;;;;;;7.35;64.48;93582.53;5059179;28;20655;-75
2023/03/27 01:00:33;;;;;;;8.07;3.90;;;;;;;7.32;64.62;93580.50;5053084;28;20289;-74
2023/03/27 01:03:04;;;;;;;8.55;4.57;;;;;;;7.26;64.67;93578.34;5052240;28;20814;-74
2023/03/27 01:05:32;;;;;;;12.07;4.85;;;;;;;7.30;64.89;93547.72;5058834;28;20270;-76
2023/03/27 01:08:00;;;;;;;10.52;4.55;;;;;;;7.51;64.50;93588.06;5059465;28;20622;-76
2023/03/27 01:10:35;;;;;;;12.68;4.75;;;;;;;7.51;64.82;93571.91;5050546;28;20234;-76
2023/03/27 01:13:16;;;;;;;9.68;5.30;;;;;;;7.41;65.28;93569.63;5053129;28;20199;-76
2023/03/27 01:15:50;;;;;;;11.60;5.18;;;;;;;7.42;65.22;93560.41;5055521;28;20584;-74
2023/03/27 01:18:29;;;;;;;15.73;5.63;;;;;;;7.57;64.86;93554.38;5060162;28;20297;-75
2023/03/27 01:21:35;;;;;;;9.82;3.92;;;;;;;7.44;64.80;93533.94;5047047;28;20551;-75
2023/03/27 01:24:36;;;;;;;11.48;4.40;;;;;;;7.38;65.81;93546.06;5066458;28;20260;-76
2023/03/27 01:27:10;;;;;;;11.52;5.13;;;;;;;7.54;64.13;93538.09;5049410;28;20238;-76
2023/03/27 01:29:58;;;;;;;8.63;4.72;;;;;;;7.65;64.96;93542.75;5060795;28;20231;-74
2023/03/27 01:32:57;;;;;;;7.55;4.35;;;;;;;7.71;64.11;93544.06;5055171;28;20219;-76
2023/03/27 01:36:03;;;;;;;9.48;4.55;;;;;;;7.53;64.64;93531.13;5048580;28;20650;-75
2023/03/27 01:39:05;;;;;;;8.25;3.88;;;;;;;7.46;64.88;93537.09;5062412;28;20279;-75
2023/03/27 01:41:40;;;;;;;7.45;3.67;;;;;;;7.47;64.63;93549.44;5046733;28;20260;-75
2023/03/27 01:44:14;;;;;;;7.57;4.38;;;;;;;7.48;65.39;93534.84;5056374;28;20202;-75
2023/03/27 01:46:48;;;;;;;10.23;3.83;;;;;;;7.62;65.44;93540.72;5057527;28;20295;-75
2023/03/27 01:49:20;;;;;;;10.60;4.70;;;;;;;7.32;65.27;93520.44;5056839;28;20705;-75
2023/03/27 01:51:50;;;;;;;11.05;4.38;;;;;;;7.30;65.87;93526.16;5056277;28;20736;-75
2023/03/27 01:54:23;;;;;;;7.40;4.20;;;;;;;7.34;65.57;93513.63;5061725;28;20281;-74
2023/03/27 01:57:01;;;;;;;13.18;4.53;;;;;;;7.23;65.25;93517.06;5063519;28;20563;-74
2023/03/27 01:59:32;;;;;;;9.43;4.30;;;;;;;7.25;66.34;93509.44;5061132;28;20710;-75
2023/03/27 02:02:03;;;;;;;7.47;4.03;;;;;;;7.38;65.81;93524.53;5051538;28;20670;-74
2023/03/27 02:04:38;;;;;;;8.00;4.45;;;;;;;7.49;65.21;93521.06;5057315;28;20200;-75
2023/03/27 02:07:10;;;;;;;8.10;4.32;;;;;;;7.47;65.44;93511.72;5056496;28;20199;-75
2023/03/27 02:09:44;;;;;;;6.80;4.00;;;;;;;7.36;65.58;93510.59;5055910;28;20909;-76
2023/03/27 02:12:18;;;;;;;6.60;3.67;;;;;;;7.45;65.60;93511.28;5060643;28;20204;-75
2023/03/27 02:14:51;;;;;;;8.27;3.97;;;;;;;7.29;65.63;93494.19;5065726;28;20206;-75
2023/03/27 02:17:20;;;;;;;10.50;4.75;;;;;;;7.30;65.28;93506.53;5069453;28;20297;-75
2023/03/27 02:19:53;;;;;;;9.70;4.32;;;;;;;7.37;65.21;93512.16;5051572;28;20796;-76
2023/03/27 02:22:20;;;;;;;10.68;3.70;;;;;;;7.12;65.33;93487.88;5057005;28;20265;-75
2023/03/27 02:24:47;;;;;;;9.68;4.90;;;;;;;6.93;65.78;93482.22;5068409;28;20214;-75
2023/03/27 02:27:24;;;;;;;8.00;4.05;;;;;;;7.05;66.90;93501.09;5056579;28;20200;-74
2023/03/27 02:30:09;;;;;;;7.60;3.95;;;;;;;7.08;66.40;93462.75;5052179;28;20223;-75
2023/03/27 02:32:47;;;;;;;7.53;4.10;;;;;;;6.89;67.23;93485.91;5062677;28;20199;-76
2023/03/27 02:35:26;;;;;;;9.20;4.53;;;;;;;6.80;67.04;93469.84;5059087;28;20631;-75
2023/03/27 02:38:01;;;;;;;9.75;4.78;;;;;;;6.89;67.59;93470.53;5062377;28;20200;-75
2023/03/27 02:40:37;;;;;;;8.73;4.00;;;;;;;6.79;67.07;93454.81;5064104;28;20210;-75
2023/03/27 02:43:10;;;;;;;7.95;3.55;;;;;;;6.70;68.14;93462.16;5059787;28;20210;-75
2023/03/27 02:45:47;;;;;;;8.93;4.43;;;;;;;6.50;68.11;93442.28;5058792;28;20667;-74
2023/03/27 02:48:19;;;;;;;10.75;4.70;;;;;;;6.57;67.92;93436.34;5060584;28;20506;-74
2023/03/27 02:50:52;;;;;;;9.30;3.97;;;;;;;6.48;67.98;93427.59;5049070;28;20227;-74
2023/03/27 02:53:23;;;;;;;7.10;3.40;;;;;;;6.57;68.55;93426.38;5054644;28;20718;-74
2023/03/27 02:55:54;;;;;;;7.07;3.92;;;;;;;6.42;68.75;93403.56;5056030;28;20195;-76
2023/03/27 02:58:29;;;;;;;13.27;3.72;;;;;;;6.48;68.87;93416.81;5055092;28;20732;-74
2023/03/27 03:00:59;;;;;;;9.70;4.40;;;;;;;6.22;68.85;93404.41;5059110;28;20310;-75
2023/03/27 03:03:32;;;;;;;7.03;3.35;;;;;;;6.32;69.33;93419.34;5062134;28;20253;-74
2023/03/27 03:06:03;;;;;;;9.15;4.57;;;;;;;6.09;69.59;93400.09;5060185;28;20257;-76
2023/03/27 03:08:30;;;;;;;7.25;3.70;;;;;;;6.13;69.69;93401.03;5055326;28;20256;-74
2023/03/27 03:11:02;;;;;;;9.13;4.18;;;;;;;6.23;70.41;93421.31;5056446;28;20656;-75
2023/03/27 03:13:30;;;;;;;7.45;3.80;;;;;;;6.17;70.49;93401.13;5062238;28;20216;-76
2023/03/27 03:15:57;;;;;;;8.07;4.20;;;;;;;6.19;70.30;93388.16;5056980;28;20203;-74
2023/03/27 03:18:24;;;;;;;6.93;3.88;;;;;;;6.12;70.28;93387.91;5061843;28;20338;-74
2023/03/27 03:20:53;;;;;;;8.60;3.97;;;;;;;5.88;71.48;93380.47;5055708;28;20195;-75
2023/03/27 03:23:20;;;;;;;6.05;3.38;;;;;;;5.92;71.45;93381.41;5055760;28;20202;-75
2023/03/27 03:25:49;;;;;;;12.60;4.40;;;;;;;6.18;70.28;93387.34;5054461;28;20302;-74
2023/03/27 03:28:17;;;;;;;6.57;3.80;;;;;;;6.18;70.46;93381.97;5059137;28;20214;-75
2023/03/27 03:30:49;;;;;;;18.88;9.20;;;;;;;6.25;70.72;93381.47;5052124;28;20227;-76
2023/03/27 03:33:16;;;;;;;13.10;6.40;;;;;;;6.12;71.17;93383.31;5059183;28;20195;-76
2023/03/27 03:35:47;;;;;;;13.00;6.20;;;;;;;6.02;71.17;93362.97;5061408;28;20298;-74
2023/03/27 03:38:23;;;;;;;12.02;6.32;;;;;;;6.00;70.69;93369.81;5057861;28;20210;-75
2023/03/27 03:40:51;;;;;;;7.50;3.30;;;;;;;6.09;70.68;93357.09;5055089;28;20298;-75
2023/03/27 03:43:18;;;;;;;8.77;3.38;;;;;;;6.04;70.61;93350.00;5056282;28;20215;-74
2023/03/27 03:45:46;;;;;;;6.22;3.28;;;;;;;6.13;70.55;93363.38;5057639;28;20203;-75
2023/03/27 03:48:13;;;;;;;5.68;2.78;;;;;;;6.01;71.92;93360.66;5057728;28;20203;-76
2023/03/27 03:50:39;;;;;;;12.90;3.80;;;;;;;6.15;70.52;93371.88;5053040;28;20222;-75
2023/03/27 03:53:06;;;;;;;11.73;5.65;;;;;;;6.16;70.49;93367.28;5055133;28;20266;-75
2023/03/27 03:55:33;;;;;;;11.40;5.50;;;;;;;6.28;69.85;93375.44;5061085;28;20211;-76
2023/03/27 03:58:00;;;;;;;9.88;5.45;;;;;;;5.89;69.64;93353.31;5054648;28;20739;-74
2023/03/27 04:00:27;;;;;;;7.93;3.45;;;;;;;5.78;70.47;93359.38;5056787;28;20199;-74
2023/03/27 04:02:55;;;;;;;8.82;3.55;;;;;;;5.89;71.08;93355.97;5055019;28;20202;-74
2023/03/27 04:05:22;;;;;;;6.57;3.80;;;;;;;5.90;71.79;93359.47;5061956;28;20280;-75
2023/03/27 04:07:50;;;;;;;6.40;3.78;;;;;;;5.84;71.43;93366.91;5056913;28;20767;-75
2023/03/27 04:10:17;;;;;;;10.20;3.75;;;;;;;5.92;71.83;93362.59;5056044;28;20870;-74
2023/03/27 04:12:47;;;;;;;9.15;3.03;;;;;;;6.05;71.03;93361.53;5057124;28;20231;-75
2023/03/27 04:15:15;;;;;;;8.30;3.45;;;;;;;6.24;70.65;93369.13;5054838;28;20205;-74
2023/03/27 04:17:42;;;;;;;6.38;3.03;;;;;;;6.29;69.65;93350.09;5053487;28;20197;-73
2023/03/27 04:20:12;;;;;;;7.50;4.05;;;;;;;6.22;69.57;93372.16;5052874;28;20515;-74
2023/03/27 04:22:45;;;;;;;7.57;3.65;;;;;;;6.41;70.12;93364.38;5062439;28;20207;-74
2023/03/27 04:25:13;;;;;;;5.97;3.40;;;;;;;6.52;68.75;93363.94;5057204;28;20686;-75
2023/03/27 04:27:42;;;;;;;8.65;3.60;;;;;;;6.48;68.95;93358.44;5060307;28;20724;-74
2023/03/27 04:30:12;;;;;;;8.13;2.95;;;;;;;6.67;68.31;93355.22;5049955;28;20231;-75
2023/03/27 04:32:39;;;;;;;8.20;3.58;;;;;;;6.84;69.83;93359.59;5050664;28;20198;-76
2023/03/27 04:35:09;;;;;;;6.60;3.25;;;;;;;6.98;65.45;93344.69;5058151;28;20199;-75
2023/03/27 04:37:40;;;;;;;6.80;2.80;;;;;;;7.26;65.94;93354.78;5047702;28;20218;-74
2023/03/27 04:40:08;;;;;;;7.65;3.08;;;;;;;7.03;65.50;93341.00;5051915;28;20285;-75
2023/03/27 04:42:34;;;;;;;3.20;2.00;;;;;;;7.20;63.93;93340.78;5059602;28;20650;-75
2023/03/27 04:45:01;;;;;;;10.02;3.15;;;;;;;7.62;64.43;93338.59;5059728;28;20268;-74
2023/03/27 04:47:28;;;;;;;13.63;3.47;;;;;;;8.62;62.45;93312.44;5051119;28;20276;-75
2023/03/27 04:49:57;;;;;;;9.80;3.53;;;;;;;9.51;60.37;93328.09;5053592;28;20207;-76
2023/03/27 04:52:24;;;;;;;6.47;3.30;;;;;;;10.13;55.59;93307.34;5053874;28;20255;-74
2023/03/27 04:54:52;;;;;;;10.55;4.25;;;;;;;11.06;54.45;93321.47;5053354;28;20207;-75
2023/03/27 04:57:21;;;;;;;10.20;3.20;;;;;;;11.81;52.76;93312.53;5059134;28;20207;-75
2023/03/27 04:59:48;;;;;;;6.88;3.70;;;;;;;11.86;50.32;93276.16;5052532;28;20221;-76
2023/03/27 05:02:15;;;;;;;17.33;3.42;;;;;;;11.76;49.95;93304.69;5058000;28;20548;-75
2023/03/27 05:04:42;;;;;;;9.70;3.65;;;;;;;11.78;50.66;93279.94;5055944;28;20218;-74
2023/03/27 05:07:09;;;;;;;6.80;3.47;;;;;;;13.16;48.17;93281.41;5060330;28;20666;-76
2023/03/27 05:09:35;;;;;;;6.15;2.78;;;;;;;12.63;47.47;93273.53;5064081;28;20256;-77
2023/03/27 05:12:04;;;;;;;5.15;3.17;;;;;;;13.80;46.24;93270.97;5058350;28;20246;-75
2023/03/27 05:14:30;;;;;;;6.30;3.38;;;;;;;15.47;43.57;93260.44;5054880;28;20234;-74
2023/03/27 05:16:59;;;;;;;8.60;3.67;;;;;;;15.94;40.88;93257.28;5057847;28;20200;-75
2023/03/27 05:19:26;;;;;;;8.00;3.30;;;;;;;14.09;43.41;93256.31;5063385;28;20288;-75
2023/03/27 05:21:53;;;;;;;13.88;4.05;;;;;;;13.17;46.02;93261.22;5058815;28;20300;-75
2023/03/27 05:24:20;;;;;;;7.63;3.85;;;;;;;12.85;46.10;93249.31;5056661;28;20196;-76
2023/03/27 05:26:47;;;;;;;13.30;3.88;;;;;;;13.10;46.04;93233.97;5061352;28;20636;-75
2023/03/27 05:29:15;;;;;;;10.02;3.70;;;;;;;13.40;45.75;93231.06;5061694;28;20223;-75
2023/03/27 05:31:42;;;;;;;9.75;4.40;;;;;;;13.51;45.44;93226.50;5060825;28;20322;-75
2023/03/27 05:34:09;;;;;;;15.95;3.72;;;;;;;13.15;46.07;93220.03;5062845;28;20207;-76
2023/03/27 05:36:35;;;;;;;11.82;3.72;;;;;;;12.87;46.94;93208.91;5055267;28;20206;-74
2023/03/27 05:39:02;;;;;;;6.07;3.40;;;;;;;11.84;49.79;93202.50;5054566;28;20265;-76
2023/03/27 05:41:29;;;;;;;9.43;3.80;;;;;;;11.98;49.73;93189.09;5061039;28;20206;-74
2023/03/27 05:43:56;;;;;;;11.55;4.70;;;;;;;12.05;48.20;93173.66;5052201;28;20207;-74
2023/03/27 05:46:24;;;;;;;6.10;3.63;;;;;;;11.24;48.47;93157.19;5060809;28;20241;-74
2023/03/27 05:48:51;;;;;;;6.00;3.50;;;;;;;11.28;50.22;93149.88;5062123;28;20665;-75
2023/03/27 05:51:17;;;;;;;13.68;3.83;;;;;;;12.45;48.98;93143.00;5058972;28;20410;-75
2023/03/27 05:53:44;;;;;;;4.07;2.50;;;;;;;12.92;44.17;93118.91;5056564;28;20312;-75
2023/03/27 05:56:11;;;;;;;7.60;3.60;;;;;;;11.90;46.13;93101.41;5060706;28;20200;-74
2023/03/27 05:58:38;;;;;;;5.72;3.25;;;;;;;11.60;47.33;93111.53;5062937;28;20742;-75
2023/03/27 06:01:05;;;;;;;16.92;6.80;;;;;;;12.14;46.83;93123.72;5058820;28;20711;-75
2023/03/27 06:03:36;;;;;;;12.73;3.10;;;;;;;12.28;46.42;93099.44;5056252;28;20283;-76
2023/03/27 06:06:07;;;;;;;8.20;3.22;;;;;;;12.26;46.26;93072.66;5059590;28;20304;-75
2023/03/27 06:08:35;;;;;;;5.35;3.13;;;;;;;12.44;45.49;93068.13;5062895;28;20203;-76
2023/03/27 06:11:02;;;;;;;11.88;4.80;;;;;;;12.61;45.90;93066.69;5060684;28;20226;-75
2023/03/27 06:13:29;;;;;;;4.68;2.67;;;;;;;12.73;45.02;93052.78;5054489;28;20735;-76
2023/03/27 06:15:56;;;;;;;10.20;3.97;;;;;;;12.40;45.58;93020.38;5058005;28;20207;-76
2023/03/27 06:18:22;;;;;;;8.38;4.00;;;;;;;13.25;44.53;93020.84;5062687;28;20251;-76
2023/03/27 06:20:51;;;;;;;7.45;3.90;;;;;;;13.93;42.84;93027.22;5056950;28;20232;-74
2023/03/27 06:23:18;;;;;;;6.88;3.60;;;;;;;13.87;42.76;93047.81;5058025;28;20268;-76
2023/03/27 06:25:46;;;;;;;5.65;2.17;;;;;;;13.36;43.08;93043.41;5068903;28;20237;-76
2023/03/27 06:28:13;;;;;;;4.72;2.58;;;;;;;13.13;44.20;93037.44;5056647;28;20203;-76
2023/03/27 06:30:41;;;;;;;1.27;0.93;;;;;;;13.14;43.68;93018.06;5064770;28;20222;-75
2023/03/27 06:33:07;;;;;;;5.55;1.92;;;;;;;12.65;44.99;93024.03;5050479;28;20211;-76
2023/03/27 06:35:35;;;;;;;12.35;3.05;;;;;;;12.44;45.64;93032.03;5056109;28;20199;-76
2023/03/27 06:38:03;;;;;;;1.30;0.70;;;;;;;12.29;45.85;93054.84;5060793;28;20200;-76
2023/03/27 06:40:34;;;;;;;2.47;1.55;;;;;;;12.30;46.26;93076.16;5062465;28;20203;-76
2023/03/27 06:43:02;;;;;;;2.53;1.38;;;;;;;12.63;45.23;93077.97;5057829;28;20203;-76
2023/03/27 06:45:32;;;;;;;3.22;0.93;;;;;;;12.62;45.67;93070.97;5052730;28;20666;-75
2023/03/27 06:48:01;;;;;;;1.85;1.10;;;;;;;12.20;46.32;93062.50;5061752;28;20577;-77
2023/03/27 06:50:29;;;;;;;4.90;1.98;;;;;;;12.58;46.12;93072.88;5052306;28;20223;-77
2023/03/27 06:52:56;;;;;;;3.30;1.30;;;;;;;12.82;46.38;93066.84;5055679;28;20226;-77
2023/03/27 06:55:27;;;;;;;4.05;2.40;;;;;;;13.36;44.90;93067.13;5052641;28;20213;-76
2023/03/27 06:57:55;;;;;;;5.22;3.00;;;;;;;14.03;43.54;93066.50;5055902;28;20291;-75
2023/03/27 07:00:25;;;;;;;6.65;3.17;;;;;;;14.72;42.12;93057.97;5059633;28;20657;-76
2023/03/27 07:02:55;;;;;;;4.78;1.60;;;;;;;15.59;40.40;93074.47;5063076;28;20230;-76
2023/03/27 07:05:22;;;;;;;3.00;1.30;;;;;;;15.12;40.26;93083.97;5055074;28;20198;-73
2023/03/27 07:07:49;;;;;;;2.30;1.50;;;;;;;16.00;39.65;93067.22;5055979;28;20215;-77
2023/03/27 07:10:16;;;;;;;4.80;1.50;;;;;;;16.19;39.88;93049.53;5061382;28;20294;-76
2023/03/27 07:12:46;;;;;;;1.10;1.00;;;;;;;16.73;38.21;93052.66;5060512;28;20243;-75
2023/03/27 07:15:14;;;;;;;3.55;1.55;;;;;;;17.04;37.59;93057.03;5054706;28;20292;-75
2023/03/27 07:17:42;;;;;;;2.92;1.45;;;;;;;17.16;38.02;93060.44;5054603;28;20234;-75
2023/03/27 07:20:11;;;;;;;5.85;1.83;;;;;;;17.97;36.71;93047.72;5060353;28;20667;-75
2023/03/27 07:22:38;;;;;;;3.72;1.80;;;;;;;18.13;36.15;93031.44;5060632;28;20199;-75
2023/03/27 07:25:05;;;;;;;4.82;1.85;;;;;;;18.80;34.64;93021.38;5056386;28;20206;-76
2023/03/27 07:27:32;;;;;;;4.65;2.55;;;;;;;19.53;34.04;93025.94;5066139;28;20256;-75
2023/03/27 07:30:00;;;;;;;2.60;1.73;;;;;;;18.83;34.48;93042.50;5051189;28;20932;-76
2023/03/27 07:32:28;;;;;;;4.00;2.10;;;;;;;18.54;34.25;93049.63;5061291;28;20718;-75
2023/03/27 07:34:55;;;;;;;3.60;2.35;;;;;;;17.98;35.67;93050.06;5055929;28;20207;-75
2023/03/27 07:37:22;;;;;;;8.43;3.65;;;;;;;17.36;37.03;93050.41;5054416;28;20261;-76
2023/03/27 07:39:49;;;;;;;8.52;4.10;;;;;;;17.12;37.91;93054.22;5058760;28;20213;-76
2023/03/27 07:42:16;;;;;;;11.38;4.93;;;;;;;17.41;37.78;93050.75;5061366;28;20206;-75
2023/03/27 07:44:42;;;;;;;9.20;5.03;;;;;;;16.44;38.72;93032.19;5054434;28;20202;-75
2023/03/27 07:47:11;;;;;;;9.10;4.72;;;;;;;16.63;38.94;93039.84;5053521;28;20658;-76
2023/03/27 07:49:38;;;;;;;10.02;4.47;;;;;;;16.81;38.89;93040.44;5058284;28;20273;-75
2023/03/27 07:52:05;;;;;;;10.05;4.63;;;;;;;16.94;38.36;93046.22;5060870;28;20305;-75
2023/03/27 07:54:32;;;;;;;13.60;4.43;;;;;;;17.11;38.82;93052.66;5047461;28;20204;-75
2023/03/27 07:56:59;;;;;;;9.48;4.10;;;;;;;16.78;38.53;93057.69;5043251;28;20590;-75
2023/03/27 07:59:26;;;;;;;8.57;3.67;;;;;;;16.58;38.59;93054.69;5057547;28;20203;-75
2023/03/27 08:01:54;;;;;;;5.93;3.80;;;;;;;16.64;38.60;93046.88;5053611;28;20205;-75
2023/03/27 08:04:22;;;;;;;7.13;3.90;;;;;;;16.45;38.93;93039.19;5055866;28;20203;-76
2023/03/27 08:06:53;;;;;;;7.30;3.60;;;;;;;15.71;39.58;93016.72;5057922;28;20199;-75
2023/03/27 08:09:20;;;;;;;6.00;3.13;;;;;;;15.68;40.49;93008.53;5058969;28;20213;-77
2023/03/27 08:11:49;;;;;;;8.32;3.40;;;;;;;15.74;40.45;93023.31;5053419;28;20781;-76
2023/03/27 08:14:16;;;;;;;5.53;3.08;;;;;;;16.19;40.24;93018.72;5054892;28;20561;-75
2023/03/27 08:16:43;;;;;;;5.88;3.30;;;;;;;16.07;39.55;93003.59;5061092;28;20277;-75
2023/03/27 08:19:10;;;;;;;5.10;3.00;;;;;;;15.52;40.82;93007.03;5047163;28;20227;-75
2023/03/27 08:21:38;;;;;;;4.28;2.80;;;;;;;16.13;39.80;92999.22;5060869;28;20207;-76
2023/03/27 08:24:06;;;;;;;4.47;2.80;;;;;;;16.57;39.10;93008.63;5061132;28;20203;-75
2023/03/27 08:26:33;;;;;;;5.57;2.58;;;;;;;15.84;39.41;93011.56;5054183;28;20202;-76
2023/03/27 08:29:00;;;;;;;6.93;2.40;;;;;;;15.66;40.21;93011.66;5056677;28;20194;-75
2023/03/27 08:31:29;;;;;;;8.45;2.92;;;;;;;15.62;40.85;92995.31;5047123;28;20769;-76
2023/03/27 08:33:56;;;;;;;7.78;3.35;;;;;;;15.78;41.58;92991.31;5060475;28;20203;-76
2023/03/27 08:36:22;;;;;;;5.40;3.00;;;;;;;15.88;40.72;92976.78;5053935;28;20199;-75
2023/03/27 08:38:53;;;;;;;3.13;2.38;;;;;;;15.21;41.50;92986.13;5052731;28;20206;-75
2023/03/27 08:41:33;;;;;;;4.07;2.55;;;;;;;15.39;42.08;93005.94;5055442;28;20841;-75
2023/03/27 08:44:02;;;;;;;5.28;2.50;;;;;;;15.40;41.75;93050.38;5053842;28;20244;-75
2023/03/27 08:46:35;;;;;;;7.18;2.55;;;;;;;15.26;45.21;93064.84;5055802;28;21321;-76
2023/03/27 08:49:08;;;;;;;31.65;3.63;;;;;;;14.28;51.99;93039.28;5060710;28;20265;-74
2023/03/27 08:51:41;;;;;;;6.80;2.13;;;;;;;13.96;53.53;93012.81;5058880;28;20709;-74
2023/03/27 08:54:17;;;;;;;2.47;1.83;;;;;;;13.99;55.48;93001.16;5053402;28;20790;-75
2023/03/27 08:56:44;;;;;;;6.40;1.92;;;;;;;14.06;54.67;92957.59;5053338;28;20273;-74
2023/03/27 08:59:14;;;;;;;4.13;2.17;;;;;;;14.31;53.52;92962.25;5058542;28;20202;-74
2023/03/27 09:01:49;;;;;;;4.90;2.42;;;;;;;14.47;49.12;92927.22;5060433;28;20219;-75
2023/03/27 09:04:28;;;;;;;5.78;2.17;;;;;;;14.86;49.03;92922.41;5049785;28;20210;-74
2023/03/27 09:07:01;;;;;;;5.57;1.85;;;;;;;15.57;44.64;92919.31;5053146;28;20252;-75
2023/03/27 09:09:43;;;;;;;3.60;1.88;;;;;;;15.91;43.32;92935.03;5054439;28;20868;-75
2023/03/27 09:12:22;;;;;;;4.45;1.88;;;;;;;16.42;42.70;92925.22;5052355;28;20268;-73
2023/03/27 09:14:54;;;;;;;4.03;1.85;;;;;;;16.64;41.76;92924.63;5052437;28;20658;-76
2023/03/27 09:17:25;;;;;;;4.15;2.05;;;;;;;16.75;42.40;92915.53;5055974;28;20203;-78
2023/03/27 09:19:57;;;;;;;3.65;1.67;;;;;;;16.64;43.17;92943.75;5063709;28;20334;-76
2023/03/27 09:22:27;;;;;;;3.03;1.80;;;;;;;16.48;45.89;92948.19;5054657;28;20257;-75
2023/03/27 09:25:01;;;;;;;4.90;1.60;;;;;;;15.71;50.06;92970.31;5049535;28;20256;-75
2023/03/27 09:27:32;;;;;;;3.08;1.92;;;;;;;15.40;53.10;92982.94;5053241;28;20203;-75
2023/03/27 09:30:17;;;;;;;6.03;2.80;;;;;;;15.12;54.40;93004.88;5054578;28;20222;-75
2023/03/27 09:32:45;;;;;;;3.03;2.03;;;;;;;15.01;56.10;93001.41;5059737;28;20331;-73
2023/03/27 09:35:14;;;;;;;2.65;1.75;;;;;;;14.61;50.70;92981.69;5057483;28;20199;-75
2023/03/27 09:37:41;;;;;;;2.25;1.52;;;;;;;14.49;53.77;92973.88;5052787;28;20285;-76
2023/03/27 09:40:22;;;;;;;3.15;1.80;;;;;;;14.57;54.68;92970.78;5054966;28;20215;-75
2023/03/27 09:42:53;;;;;;;4.05;2.05;;;;;;;14.64;53.33;92974.63;5053513;28;20232;-74
2023/03/27 09:45:21;;;;;;;2.00;1.80;;;;;;;14.64;54.12;92980.88;5065212;28;20203;-75
2023/03/27 09:47:57;;;;;;;5.25;1.63;;;;;;;14.74;51.88;92977.34;5055843;28;20294;-74
2023/03/27 09:50:30;;;;;;;2.42;1.90;;;;;;;14.82;51.03;92954.34;5056892;28;20302;-74
2023/03/27 09:53:08;;;;;;;3.05;1.85;;;;;;;15.05;53.22;92956.59;5059782;28;20228;-74
2023/03/27 09:55:48;;;;;;;4.88;2.50;;;;;;;15.19;51.77;92928.47;5062504;28;20231;-73
2023/03/27 09:58:28;;;;;;;5.78;3.03;;;;;;;15.22;51.02;92928.44;5057008;28;20192;-73
2023/03/27 10:01:13;;;;;;;4.05;2.88;;;;;;;15.40;49.74;92933.81;5056775;28;20662;-77
2023/03/27 10:03:42;;;;;;;3.05;2.20;;;;;;;15.31;48.00;92940.91;5054611;28;20800;-75
2023/03/27 10:06:13;;;;;;;3.28;2.00;;;;;;;15.45;49.19;92936.09;5057160;28;20285;-75
2023/03/27 10:08:42;;;;;;;5.10;1.98;;;;;;;15.57;48.12;92962.22;5056737;28;20607;-75
2023/03/27 10:11:16;;;;;;;3.55;1.88;;;;;;;15.45;45.83;92963.41;5063065;28;20218;-75
2023/03/27 10:13:48;;;;;;;3.88;1.90;;;;;;;15.07;48.53;92980.72;5055995;28;20320;-75
2023/03/27 10:16:16;;;;;;;2.63;1.83;;;;;;;14.79;52.83;93003.41;5053775;28;20249;-75
2023/03/27 10:18:47;;;;;;;3.20;2.00;;;;;;;14.34;54.33;93005.81;5054474;28;20235;-75
2023/03/27 10:21:23;;;;;;;4.38;2.08;;;;;;;13.96;55.10;92991.03;5062950;28;20249;-77
2023/03/27 10:23:51;;;;;;;4.13;1.90;;;;;;;13.79;56.96;92991.81;5061044;28;20199;-76
2023/03/27 10:26:21;;;;;;;4.18;1.90;;;;;;;13.65;59.02;92989.09;5056725;28;20268;-74
2023/03/27 10:28:50;;;;;;;4.43;2.20;;;;;;;13.63;59.67;92972.38;5067299;28;20207;-75
2023/03/27 10:31:31;;;;;;;2.38;1.80;;;;;;;13.86;59.66;92949.03;5061988;28;20325;-74
2023/03/27 10:34:01;;;;;;;8.27;3.97;;;;;;;14.11;57.69;92954.47;5047382;28;20265;-76
2023/03/27 10:36:33;;;;;;;3.53;2.40;;;;;;;14.34;55.48;92950.56;5045932;28;20206;-73
2023/03/27 10:39:04;;;;;;;4.57;1.33;;;;;;;14.63;54.71;92934.94;5053238;28;20222;-77
2023/03/27 10:41:34;;;;;;;3.90;2.00;;;;;;;15.03;54.88;92939.09;5056923;28;20205;-75
2023/03/27 10:44:06;;;;;;;2.08;1.42;;;;;;;15.41;55.07;92913.53;5066951;28;20256;-76
2023/03/27 10:46:39;;;;;;;2.65;1.50;;;;;;;15.52;49.67;92908.78;5057361;28;20261;-76
2023/03/27 10:49:15;;;;;;;2.83;1.98;;;;;;;15.63;55.66;92887.66;5056559;28;20263;-73
2023/03/27 10:51:49;;;;;;;3.72;2.13;;;;;;;15.04;51.80;92884.13;5052018;28;20270;-74
2023/03/27 10:54:27;;;;;;;3.42;1.90;;;;;;;14.66;52.98;92880.44;5069520;28;20199;-76
2023/03/27 10:57:01;;;;;;;7.03;1.83;;;;;;;14.80;51.82;92869.47;5053573;28;20349;-75
2023/03/27 10:59:31;;;;;;;3.85;1.73;;;;;;;14.89;51.85;92872.56;5050085;28;20200;-73
2023/03/27 11:02:01;;;;;;;5.15;1.23;;;;;;;14.89;50.59;92877.22;5061705;28;20617;-75
2023/03/27 11:04:39;;;;;;;3.63;1.73;;;;;;;14.91;49.36;92883.03;5060569;28;20288;-74
2023/03/27 11:07:12;;;;;;;3.47;1.67;;;;;;;14.94;49.13;92874.84;5061369;28;20210;-74
2023/03/27 11:09:52;;;;;;;6.93;1.35;;;;;;;14.88;49.10;92881.13;5061207;28;20207;-73
2023/03/27 11:12:22;;;;;;;3.72;2.13;;;;;;;14.91;48.17;92883.03;5056982;28;20299;-75
2023/03/27 11:14:53;;;;;;;2.88;1.95;;;;;;;14.74;47.80;92895.59;5054122;28;20626;-74
2023/03/27 11:17:25;;;;;;;3.55;1.25;;;;;;;14.62;50.76;92906.94;5061236;28;20261;-81
2023/03/27 11:19:59;;;;;;;4.07;1.70;;;;;;;14.00;55.31;92931.94;5062707;28;20710;-78
2023/03/27 11:22:30;;;;;;;1.30;1.20;;;;;;;13.53;57.62;92933.06;5054424;28;20292;-75
2023/03/27 11:25:04;;;;;;;3.10;1.60;;;;;;;13.43;58.88;92956.38;5053744;28;20292;-77
2023/03/27 11:27:40;;;;;;;2.53;1.20;;;;;;;12.90;62.64;92975.25;5051878;28;20290;-79
2023/03/27 11:30:27;;;;;;;3.67;1.50;;;;;;;12.78;64.43;92968.22;5052107;28;20211;-75
2023/03/27 11:33:08;;;;;;;4.10;0.82;;;;;;;12.36;66.50;92968.00;5048341;28;20230;-78
2023/03/27 11:35:38;;;;;;;1.23;0.80;;;;;;;12.16;67.03;92970.22;5051809;28;20195;-74
2023/03/27 11:38:14;;;;;;;1.05;0.95;;;;;;;12.20;68.20;92981.06;5058253;28;20202;-73
2023/03/27 11:40:44;;;;;;;1.20;1.02;;;;;;;12.02;68.91;92981.75;5055180;28;20204;-82
2023/03/27 11:43:14;;;;;;;2.45;1.58;;;;;;;11.80;69.59;92980.00;5051071;28;20202;-77
2023/03/27 11:45:47;;;;;;;2.50;1.27;;;;;;;11.83;68.67;92978.47;5048257;28;20234;-77
2023/03/27 11:48:57;;;;;;;1.63;1.23;;;;;;;11.88;67.47;92989.78;5053223;28;20231;-75
2023/03/27 11:51:37;;;;;;;2.80;1.33;;;;;;;12.03;65.74;92986.00;5049402;28;20922;-72